sensor_id;sensor_type;location;lat;lon;timestamp;P1;durP1;ratioP1;P2;durP2;ratioP2
23266;SDS011;11802;53.160;8.214;2024-03-17T00:00:01;16.40;;;5.27;;
23266;SDS011;11802;53.160;8.214;2024-03-17T00:02:28;21.60;;;5.37;;
23266;SDS011;11802;53.160;8.214;2024-03-17T00:04:54;24.67;;;5.43;;
23266;SDS011;11802;53.160;8.214;2024-03-17T00:07:19;21.17;;;5.53;;
23266;SDS011;11802;53.160;8.214;2024-03-17T00:09:45;16.43;;;5.03;;
23266;SDS011;11802;53.160;8.214;2024-03-17T00:12:11;16.27;;;4.87;;
23266;SDS011;11802;53.160;8.214;2024-03-17T00:14:37;29.17;;;5.97;;
23266;SDS011;11802;53.160;8.214;2024-03-17T00:17:04;21.53;;;5.83;;
23266;SDS011;11802;53.160;8.214;2024-03-17T00:19:29;16.87;;;5.53;;
23266;SDS011;11802;53.160;8.214;2024-03-17T00:21:55;16.30;;;4.80;;
23266;SDS011;11802;53.160;8.214;2024-03-17T00:24:20;17.97;;;4.67;;
23266;SDS011;11802;53.160;8.214;2024-03-17T00:26:46;14.57;;;4.90;;
23266;SDS011;11802;53.160;8.214;2024-03-17T00:29:12;17.10;;;4.10;;
23266;SDS011;11802;53.160;8.214;2024-03-17T00:31:39;17.73;;;4.57;;
23266;SDS011;11802;53.160;8.214;2024-03-17T00:34:05;15.97;;;5.17;;
23266;SDS011;11802;53.160;8.214;2024-03-17T00:36:31;14.67;;;5.50;;
23266;SDS011;11802;53.160;8.214;2024-03-17T00:38:56;16.93;;;5.00;;
23266;SDS011;11802;53.160;8.214;2024-03-17T00:41:22;17.10;;;5.70;;
23266;SDS011;11802;53.160;8.214;2024-03-17T00:43:48;14.50;;;4.80;;
23266;SDS011;11802;53.160;8.214;2024-03-17T00:46:15;21.00;;;5.20;;
23266;SDS011;11802;53.160;8.214;2024-03-17T00:48:40;24.77;;;5.37;;
23266;SDS011;11802;53.160;8.214;2024-03-17T00:51:06;12.87;;;4.93;;
23266;SDS011;11802;53.160;8.214;2024-03-17T00:53:32;27.87;;;5.70;;
23266;SDS011;11802;53.160;8.214;2024-03-17T00:55:57;18.10;;;5.47;;
23266;SDS011;11802;53.160;8.214;2024-03-17T00:58:23;19.37;;;5.37;;
23266;SDS011;11802;53.160;8.214;2024-03-17T01:00:49;18.13;;;5.23;;
23266;SDS011;11802;53.160;8.214;2024-03-17T01:03:15;23.50;;;5.83;;
23266;SDS011;11802;53.160;8.214;2024-03-17T01:05:41;19.43;;;6.17;;
23266;SDS011;11802;53.160;8.214;2024-03-17T01:08:09;14.30;;;4.60;;
23266;SDS011;11802;53.160;8.214;2024-03-17T01:10:38;16.33;;;5.27;;
23266;SDS011;11802;53.160;8.214;2024-03-17T01:13:05;17.50;;;5.27;;
23266;SDS011;11802;53.160;8.214;2024-03-17T01:15:32;20.53;;;6.37;;
23266;SDS011;11802;53.160;8.214;2024-03-17T01:17:58;15.97;;;5.20;;
23266;SDS011;11802;53.160;8.214;2024-03-17T01:20:24;17.23;;;4.33;;
23266;SDS011;11802;53.160;8.214;2024-03-17T01:22:50;15.00;;;4.83;;
23266;SDS011;11802;53.160;8.214;2024-03-17T01:25:16;17.07;;;4.50;;
23266;SDS011;11802;53.160;8.214;2024-03-17T01:27:41;17.33;;;5.80;;
23266;SDS011;11802;53.160;8.214;2024-03-17T01:30:08;18.10;;;4.57;;
23266;SDS011;11802;53.160;8.214;2024-03-17T01:32:34;18.40;;;5.10;;
23266;SDS011;11802;53.160;8.214;2024-03-17T01:35:00;15.10;;;5.53;;
23266;SDS011;11802;53.160;8.214;2024-03-17T01:37:26;20.90;;;5.20;;
23266;SDS011;11802;53.160;8.214;2024-03-17T01:39:51;16.10;;;4.63;;
23266;SDS011;11802;53.160;8.214;2024-03-17T01:42:17;14.97;;;4.40;;
23266;SDS011;11802;53.160;8.214;2024-03-17T01:44:43;22.33;;;5.40;;
23266;SDS011;11802;53.160;8.214;2024-03-17T01:47:08;20.37;;;4.37;;
23266;SDS011;11802;53.160;8.214;2024-03-17T01:49:34;19.77;;;4.90;;
23266;SDS011;11802;53.160;8.214;2024-03-17T01:52:01;15.90;;;5.13;;
23266;SDS011;11802;53.160;8.214;2024-03-17T01:54:28;23.73;;;5.17;;
23266;SDS011;11802;53.160;8.214;2024-03-17T01:56:54;13.70;;;4.37;;
23266;SDS011;11802;53.160;8.214;2024-03-17T01:59:20;12.60;;;3.93;;
23266;SDS011;11802;53.160;8.214;2024-03-17T02:01:46;14.87;;;4.57;;
23266;SDS011;11802;53.160;8.214;2024-03-17T02:04:11;15.10;;;4.67;;
23266;SDS011;11802;53.160;8.214;2024-03-17T02:06:37;24.00;;;4.70;;
23266;SDS011;11802;53.160;8.214;2024-03-17T02:09:04;20.27;;;4.93;;
23266;SDS011;11802;53.160;8.214;2024-03-17T02:11:30;14.57;;;4.30;;
23266;SDS011;11802;53.160;8.214;2024-03-17T02:13:58;21.80;;;4.80;;
23266;SDS011;11802;53.160;8.214;2024-03-17T02:16:24;10.87;;;4.03;;
23266;SDS011;11802;53.160;8.214;2024-03-17T02:18:56;18.80;;;4.43;;
23266;SDS011;11802;53.160;8.214;2024-03-17T02:21:22;12.33;;;4.60;;
23266;SDS011;11802;53.160;8.214;2024-03-17T02:23:49;19.20;;;5.10;;
23266;SDS011;11802;53.160;8.214;2024-03-17T02:26:19;12.83;;;4.37;;
23266;SDS011;11802;53.160;8.214;2024-03-17T02:28:46;13.53;;;4.87;;
23266;SDS011;11802;53.160;8.214;2024-03-17T02:31:12;17.00;;;5.43;;
23266;SDS011;11802;53.160;8.214;2024-03-17T02:33:40;18.47;;;4.63;;
23266;SDS011;11802;53.160;8.214;2024-03-17T02:36:06;17.60;;;5.00;;
23266;SDS011;11802;53.160;8.214;2024-03-17T02:38:35;19.47;;;4.90;;
23266;SDS011;11802;53.160;8.214;2024-03-17T02:41:20;19.03;;;5.13;;
23266;SDS011;11802;53.160;8.214;2024-03-17T02:43:46;11.53;;;4.63;;
23266;SDS011;11802;53.160;8.214;2024-03-17T02:46:12;16.30;;;4.40;;
23266;SDS011;11802;53.160;8.214;2024-03-17T02:48:43;19.90;;;4.53;;
23266;SDS011;11802;53.160;8.214;2024-03-17T02:51:12;17.10;;;4.73;;
23266;SDS011;11802;53.160;8.214;2024-03-17T02:53:42;13.23;;;4.23;;
23266;SDS011;11802;53.160;8.214;2024-03-17T02:56:09;16.03;;;4.50;;
23266;SDS011;11802;53.160;8.214;2024-03-17T02:58:36;20.67;;;4.90;;
23266;SDS011;11802;53.160;8.214;2024-03-17T03:01:02;21.83;;;5.17;;
23266;SDS011;11802;53.160;8.214;2024-03-17T03:03:29;16.07;;;4.77;;
23266;SDS011;11802;53.160;8.214;2024-03-17T03:05:55;14.67;;;4.97;;
23266;SDS011;11802;53.160;8.214;2024-03-17T03:08:22;16.53;;;4.60;;
23266;SDS011;11802;53.160;8.214;2024-03-17T03:10:48;20.00;;;5.70;;
23266;SDS011;11802;53.160;8.214;2024-03-17T03:13:14;27.63;;;5.43;;
23266;SDS011;11802;53.160;8.214;2024-03-17T03:15:39;14.33;;;5.00;;
23266;SDS011;11802;53.160;8.214;2024-03-17T03:18:05;19.07;;;5.23;;
23266;SDS011;11802;53.160;8.214;2024-03-17T03:20:30;15.67;;;5.23;;
23266;SDS011;11802;53.160;8.214;2024-03-17T03:22:56;15.20;;;4.80;;
23266;SDS011;11802;53.160;8.214;2024-03-17T03:25:21;16.17;;;4.73;;
23266;SDS011;11802;53.160;8.214;2024-03-17T03:27:47;11.23;;;4.50;;
23266;SDS011;11802;53.160;8.214;2024-03-17T03:30:13;15.67;;;5.33;;
23266;SDS011;11802;53.160;8.214;2024-03-17T03:32:40;13.23;;;4.77;;
23266;SDS011;11802;53.160;8.214;2024-03-17T03:35:08;14.90;;;4.83;;
23266;SDS011;11802;53.160;8.214;2024-03-17T03:37:34;11.00;;;4.77;;
23266;SDS011;11802;53.160;8.214;2024-03-17T03:39:59;13.80;;;5.50;;
23266;SDS011;11802;53.160;8.214;2024-03-17T03:42:25;19.57;;;5.37;;
23266;SDS011;11802;53.160;8.214;2024-03-17T03:44:51;18.47;;;5.60;;
23266;SDS011;11802;53.160;8.214;2024-03-17T03:47:16;17.23;;;5.47;;
23266;SDS011;11802;53.160;8.214;2024-03-17T03:49:42;19.73;;;5.57;;
23266;SDS011;11802;53.160;8.214;2024-03-17T03:52:10;19.80;;;5.53;;
23266;SDS011;11802;53.160;8.214;2024-03-17T03:54:35;17.67;;;5.33;;
23266;SDS011;11802;53.160;8.214;2024-03-17T03:57:01;20.47;;;5.73;;
23266;SDS011;11802;53.160;8.214;2024-03-17T03:59:27;14.83;;;4.93;;
23266;SDS011;11802;53.160;8.214;2024-03-17T04:01:54;12.37;;;5.60;;
23266;SDS011;11802;53.160;8.214;2024-03-17T04:04:19;20.60;;;5.87;;
23266;SDS011;11802;53.160;8.214;2024-03-17T04:06:45;18.83;;;5.20;;
23266;SDS011;11802;53.160;8.214;2024-03-17T04:09:11;16.27;;;5.90;;
23266;SDS011;11802;53.160;8.214;2024-03-17T04:11:37;18.27;;;5.33;;
23266;SDS011;11802;53.160;8.214;2024-03-17T04:14:03;15.10;;;5.67;;
23266;SDS011;11802;53.160;8.214;2024-03-17T04:16:29;23.90;;;6.00;;
23266;SDS011;11802;53.160;8.214;2024-03-17T04:18:56;17.00;;;5.63;;
23266;SDS011;11802;53.160;8.214;2024-03-17T04:21:22;18.97;;;5.57;;
23266;SDS011;11802;53.160;8.214;2024-03-17T04:23:47;15.10;;;5.10;;
23266;SDS011;11802;53.160;8.214;2024-03-17T04:26:13;15.97;;;5.30;;
23266;SDS011;11802;53.160;8.214;2024-03-17T04:28:39;16.87;;;5.00;;
23266;SDS011;11802;53.160;8.214;2024-03-17T04:31:05;17.33;;;5.70;;
23266;SDS011;11802;53.160;8.214;2024-03-17T04:33:31;14.83;;;4.80;;
23266;SDS011;11802;53.160;8.214;2024-03-17T04:35:58;16.70;;;5.53;;
23266;SDS011;11802;53.160;8.214;2024-03-17T04:38:23;13.63;;;5.13;;
23266;SDS011;11802;53.160;8.214;2024-03-17T04:40:49;15.93;;;5.50;;
23266;SDS011;11802;53.160;8.214;2024-03-17T04:43:15;15.47;;;5.17;;
23266;SDS011;11802;53.160;8.214;2024-03-17T04:45:41;17.77;;;5.97;;
23266;SDS011;11802;53.160;8.214;2024-03-17T04:48:06;19.43;;;5.73;;
23266;SDS011;11802;53.160;8.214;2024-03-17T04:50:32;12.20;;;5.30;;
23266;SDS011;11802;53.160;8.214;2024-03-17T04:52:58;19.63;;;5.83;;
23266;SDS011;11802;53.160;8.214;2024-03-17T04:55:24;18.70;;;5.67;;
23266;SDS011;11802;53.160;8.214;2024-03-17T04:57:50;16.33;;;5.40;;
23266;SDS011;11802;53.160;8.214;2024-03-17T05:00:16;16.30;;;5.00;;
23266;SDS011;11802;53.160;8.214;2024-03-17T05:02:44;23.63;;;5.93;;
23266;SDS011;11802;53.160;8.214;2024-03-17T05:05:10;21.03;;;6.10;;
23266;SDS011;11802;53.160;8.214;2024-03-17T05:07:36;21.80;;;6.53;;
23266;SDS011;11802;53.160;8.214;2024-03-17T05:10:02;20.37;;;6.53;;
23266;SDS011;11802;53.160;8.214;2024-03-17T05:12:28;17.07;;;5.60;;
23266;SDS011;11802;53.160;8.214;2024-03-17T05:14:54;19.27;;;6.23;;
23266;SDS011;11802;53.160;8.214;2024-03-17T05:17:19;18.70;;;6.27;;
23266;SDS011;11802;53.160;8.214;2024-03-17T05:19:45;15.27;;;5.40;;
23266;SDS011;11802;53.160;8.214;2024-03-17T05:22:10;23.50;;;5.77;;
23266;SDS011;11802;53.160;8.214;2024-03-17T05:24:36;19.73;;;5.80;;
23266;SDS011;11802;53.160;8.214;2024-03-17T05:27:02;21.03;;;6.23;;
23266;SDS011;11802;53.160;8.214;2024-03-17T05:29:28;12.50;;;5.53;;
23266;SDS011;11802;53.160;8.214;2024-03-17T05:31:54;13.40;;;6.40;;
23266;SDS011;11802;53.160;8.214;2024-03-17T05:34:19;16.67;;;5.97;;
23266;SDS011;11802;53.160;8.214;2024-03-17T05:36:45;19.47;;;5.57;;
23266;SDS011;11802;53.160;8.214;2024-03-17T05:39:12;24.90;;;8.93;;
23266;SDS011;11802;53.160;8.214;2024-03-17T05:41:37;18.33;;;6.10;;
23266;SDS011;11802;53.160;8.214;2024-03-17T05:44:03;17.60;;;6.83;;
23266;SDS011;11802;53.160;8.214;2024-03-17T05:46:29;16.80;;;6.57;;
23266;SDS011;11802;53.160;8.214;2024-03-17T05:48:55;14.90;;;6.43;;
23266;SDS011;11802;53.160;8.214;2024-03-17T05:51:21;18.37;;;6.20;;
23266;SDS011;11802;53.160;8.214;2024-03-17T05:53:47;14.13;;;6.70;;
23266;SDS011;11802;53.160;8.214;2024-03-17T05:56:13;20.87;;;6.77;;
23266;SDS011;11802;53.160;8.214;2024-03-17T05:58:40;19.30;;;6.93;;
23266;SDS011;11802;53.160;8.214;2024-03-17T06:01:06;19.93;;;6.80;;
23266;SDS011;11802;53.160;8.214;2024-03-17T06:03:32;15.07;;;5.90;;
23266;SDS011;11802;53.160;8.214;2024-03-17T06:06:00;22.40;;;7.27;;
23266;SDS011;11802;53.160;8.214;2024-03-17T06:08:27;13.50;;;6.37;;
23266;SDS011;11802;53.160;8.214;2024-03-17T06:10:52;16.57;;;6.33;;
23266;SDS011;11802;53.160;8.214;2024-03-17T06:13:18;16.97;;;6.97;;
23266;SDS011;11802;53.160;8.214;2024-03-17T06:15:44;17.50;;;6.63;;
23266;SDS011;11802;53.160;8.214;2024-03-17T06:18:12;16.43;;;7.27;;
23266;SDS011;11802;53.160;8.214;2024-03-17T06:20:43;20.67;;;7.50;;
23266;SDS011;11802;53.160;8.214;2024-03-17T06:23:09;20.40;;;7.30;;
23266;SDS011;11802;53.160;8.214;2024-03-17T06:25:48;14.03;;;7.77;;
23266;SDS011;11802;53.160;8.214;2024-03-17T06:28:15;20.57;;;8.40;;
23266;SDS011;11802;53.160;8.214;2024-03-17T06:30:45;21.47;;;9.33;;
23266;SDS011;11802;53.160;8.214;2024-03-17T06:33:18;19.10;;;8.13;;
23266;SDS011;11802;53.160;8.214;2024-03-17T06:35:44;16.70;;;6.60;;
23266;SDS011;11802;53.160;8.214;2024-03-17T06:38:11;14.03;;;6.63;;
23266;SDS011;11802;53.160;8.214;2024-03-17T06:40:37;15.70;;;5.90;;
23266;SDS011;11802;53.160;8.214;2024-03-17T06:43:03;20.50;;;5.53;;
23266;SDS011;11802;53.160;8.214;2024-03-17T06:45:29;16.53;;;4.60;;
23266;SDS011;11802;53.160;8.214;2024-03-17T06:47:55;14.27;;;4.30;;
23266;SDS011;11802;53.160;8.214;2024-03-17T06:50:20;9.40;;;3.90;;
23266;SDS011;11802;53.160;8.214;2024-03-17T06:52:46;9.17;;;3.23;;
23266;SDS011;11802;53.160;8.214;2024-03-17T06:55:12;11.57;;;3.93;;
23266;SDS011;11802;53.160;8.214;2024-03-17T06:57:38;10.48;;;3.65;;
23266;SDS011;11802;53.160;8.214;2024-03-17T07:00:08;8.98;;;3.28;;
23266;SDS011;11802;53.160;8.214;2024-03-17T07:02:38;8.75;;;3.45;;
23266;SDS011;11802;53.160;8.214;2024-03-17T07:05:05;15.63;;;3.70;;
23266;SDS011;11802;53.160;8.214;2024-03-17T07:07:31;9.25;;;3.13;;
23266;SDS011;11802;53.160;8.214;2024-03-17T07:09:57;10.35;;;3.25;;
23266;SDS011;11802;53.160;8.214;2024-03-17T07:12:22;12.77;;;4.18;;
23266;SDS011;11802;53.160;8.214;2024-03-17T07:14:51;11.50;;;3.40;;
23266;SDS011;11802;53.160;8.214;2024-03-17T07:17:17;9.82;;;3.38;;
23266;SDS011;11802;53.160;8.214;2024-03-17T07:19:42;10.70;;;3.08;;
23266;SDS011;11802;53.160;8.214;2024-03-17T07:22:08;10.45;;;3.05;;
23266;SDS011;11802;53.160;8.214;2024-03-17T07:24:33;9.63;;;3.28;;
23266;SDS011;11802;53.160;8.214;2024-03-17T07:26:59;11.48;;;3.28;;
23266;SDS011;11802;53.160;8.214;2024-03-17T07:29:25;12.18;;;3.17;;
23266;SDS011;11802;53.160;8.214;2024-03-17T07:31:50;12.35;;;2.88;;
23266;SDS011;11802;53.160;8.214;2024-03-17T07:34:16;9.63;;;2.72;;
23266;SDS011;11802;53.160;8.214;2024-03-17T07:36:42;8.20;;;3.03;;
23266;SDS011;11802;53.160;8.214;2024-03-17T07:39:07;10.52;;;3.03;;
23266;SDS011;11802;53.160;8.214;2024-03-17T07:41:33;10.50;;;3.13;;
23266;SDS011;11802;53.160;8.214;2024-03-17T07:43:58;8.90;;;2.58;;
23266;SDS011;11802;53.160;8.214;2024-03-17T07:46:24;8.10;;;2.65;;
23266;SDS011;11802;53.160;8.214;2024-03-17T07:48:50;11.05;;;2.65;;
23266;SDS011;11802;53.160;8.214;2024-03-17T07:51:16;8.60;;;1.83;;
23266;SDS011;11802;53.160;8.214;2024-03-17T07:53:42;9.32;;;2.65;;
23266;SDS011;11802;53.160;8.214;2024-03-17T07:56:10;10.40;;;2.55;;
23266;SDS011;11802;53.160;8.214;2024-03-17T07:58:38;9.60;;;2.50;;
23266;SDS011;11802;53.160;8.214;2024-03-17T08:01:06;13.32;;;2.83;;
23266;SDS011;11802;53.160;8.214;2024-03-17T08:03:44;12.43;;;2.97;;
23266;SDS011;11802;53.160;8.214;2024-03-17T08:06:11;10.90;;;2.20;;
23266;SDS011;11802;53.160;8.214;2024-03-17T08:08:37;12.38;;;2.78;;
23266;SDS011;11802;53.160;8.214;2024-03-17T08:11:02;10.95;;;2.75;;
23266;SDS011;11802;53.160;8.214;2024-03-17T08:13:31;12.55;;;2.47;;
23266;SDS011;11802;53.160;8.214;2024-03-17T08:16:02;8.48;;;2.42;;
23266;SDS011;11802;53.160;8.214;2024-03-17T08:18:32;12.57;;;2.70;;
23266;SDS011;11802;53.160;8.214;2024-03-17T08:20:59;10.90;;;2.67;;
23266;SDS011;11802;53.160;8.214;2024-03-17T08:23:25;10.82;;;2.03;;
23266;SDS011;11802;53.160;8.214;2024-03-17T08:25:58;8.70;;;2.00;;
23266;SDS011;11802;53.160;8.214;2024-03-17T08:28:24;12.90;;;2.80;;
23266;SDS011;11802;53.160;8.214;2024-03-17T08:30:54;10.45;;;2.05;;
23266;SDS011;11802;53.160;8.214;2024-03-17T08:33:21;9.32;;;1.83;;
23266;SDS011;11802;53.160;8.214;2024-03-17T08:35:58;10.73;;;2.00;;
23266;SDS011;11802;53.160;8.214;2024-03-17T08:38:28;7.70;;;2.33;;
23266;SDS011;11802;53.160;8.214;2024-03-17T08:40:56;9.00;;;1.77;;
23266;SDS011;11802;53.160;8.214;2024-03-17T08:43:22;8.60;;;2.03;;
23266;SDS011;11802;53.160;8.214;2024-03-17T08:45:55;9.48;;;2.00;;
23266;SDS011;11802;53.160;8.214;2024-03-17T08:48:34;10.90;;;1.58;;
23266;SDS011;11802;53.160;8.214;2024-03-17T08:51:01;8.80;;;2.13;;
23266;SDS011;11802;53.160;8.214;2024-03-17T08:53:28;8.43;;;1.92;;
23266;SDS011;11802;53.160;8.214;2024-03-17T08:55:54;8.38;;;1.65;;
23266;SDS011;11802;53.160;8.214;2024-03-17T08:58:21;10.32;;;2.03;;
23266;SDS011;11802;53.160;8.214;2024-03-17T09:00:47;12.05;;;1.95;;
23266;SDS011;11802;53.160;8.214;2024-03-17T09:03:13;7.72;;;1.90;;
23266;SDS011;11802;53.160;8.214;2024-03-17T09:05:39;6.32;;;1.50;;
23266;SDS011;11802;53.160;8.214;2024-03-17T09:08:06;7.80;;;1.65;;
23266;SDS011;11802;53.160;8.214;2024-03-17T09:10:42;7.85;;;1.60;;
23266;SDS011;11802;53.160;8.214;2024-03-17T09:13:21;9.63;;;1.70;;
23266;SDS011;11802;53.160;8.214;2024-03-17T09:18:27;5.75;;;1.33;;
23266;SDS011;11802;53.160;8.214;2024-03-17T09:21:00;8.95;;;1.65;;
23266;SDS011;11802;53.160;8.214;2024-03-17T09:23:27;8.52;;;2.40;;
23266;SDS011;11802;53.160;8.214;2024-03-17T09:26:00;9.35;;;1.83;;
23266;SDS011;11802;53.160;8.214;2024-03-17T09:28:27;8.02;;;1.65;;
23266;SDS011;11802;53.160;8.214;2024-03-17T09:30:54;7.63;;;1.70;;
23266;SDS011;11802;53.160;8.214;2024-03-17T09:33:20;8.48;;;1.52;;
23266;SDS011;11802;53.160;8.214;2024-03-17T09:35:56;5.72;;;1.50;;
23266;SDS011;11802;53.160;8.214;2024-03-17T09:38:23;7.57;;;2.33;;
23266;SDS011;11802;53.160;8.214;2024-03-17T09:40:49;8.85;;;1.45;;
23266;SDS011;11802;53.160;8.214;2024-03-17T09:43:17;7.95;;;1.75;;
23266;SDS011;11802;53.160;8.214;2024-03-17T09:45:49;6.85;;;1.60;;
23266;SDS011;11802;53.160;8.214;2024-03-17T09:48:19;9.32;;;1.90;;
23266;SDS011;11802;53.160;8.214;2024-03-17T09:50:54;10.10;;;2.08;;
23266;SDS011;11802;53.160;8.214;2024-03-17T09:53:25;6.83;;;2.20;;
23266;SDS011;11802;53.160;8.214;2024-03-17T09:55:58;9.68;;;1.83;;
23266;SDS011;11802;53.160;8.214;2024-03-17T09:58:34;11.70;;;2.10;;
23266;SDS011;11802;53.160;8.214;2024-03-17T10:01:00;6.97;;;1.70;;
23266;SDS011;11802;53.160;8.214;2024-03-17T10:03:42;7.72;;;1.90;;
23266;SDS011;11802;53.160;8.214;2024-03-17T10:06:16;10.20;;;2.27;;
23266;SDS011;11802;53.160;8.214;2024-03-17T10:08:46;10.82;;;2.20;;
23266;SDS011;11802;53.160;8.214;2024-03-17T10:11:14;6.45;;;1.50;;
23266;SDS011;11802;53.160;8.214;2024-03-17T10:13:41;6.47;;;1.88;;
23266;SDS011;11802;53.160;8.214;2024-03-17T10:16:23;9.20;;;1.60;;
23266;SDS011;11802;53.160;8.214;2024-03-17T10:18:50;8.20;;;1.47;;
23266;SDS011;11802;53.160;8.214;2024-03-17T10:21:30;8.00;;;2.10;;
23266;SDS011;11802;53.160;8.214;2024-03-17T10:24:13;8.55;;;2.15;;
23266;SDS011;11802;53.160;8.214;2024-03-17T10:26:46;9.85;;;1.48;;
23266;SDS011;11802;53.160;8.214;2024-03-17T10:29:19;10.73;;;2.45;;
23266;SDS011;11802;53.160;8.214;2024-03-17T10:31:50;10.87;;;1.93;;
23266;SDS011;11802;53.160;8.214;2024-03-17T10:34:20;8.43;;;1.93;;
23266;SDS011;11802;53.160;8.214;2024-03-17T10:36:49;8.53;;;1.83;;
23266;SDS011;11802;53.160;8.214;2024-03-17T10:39:23;10.73;;;2.37;;
23266;SDS011;11802;53.160;8.214;2024-03-17T10:42:00;7.33;;;2.17;;
23266;SDS011;11802;53.160;8.214;2024-03-17T10:44:27;11.50;;;2.50;;
23266;SDS011;11802;53.160;8.214;2024-03-17T10:46:54;9.27;;;2.27;;
23266;SDS011;11802;53.160;8.214;2024-03-17T10:49:28;7.17;;;2.10;;
23266;SDS011;11802;53.160;8.214;2024-03-17T10:51:56;7.93;;;2.30;;
23266;SDS011;11802;53.160;8.214;2024-03-17T10:54:24;9.17;;;2.50;;
23266;SDS011;11802;53.160;8.214;2024-03-17T10:56:53;8.40;;;2.00;;
23266;SDS011;11802;53.160;8.214;2024-03-17T10:59:32;6.10;;;1.97;;
23266;SDS011;11802;53.160;8.214;2024-03-17T11:02:28;7.67;;;2.40;;
23266;SDS011;11802;53.160;8.214;2024-03-17T11:04:57;12.23;;;2.87;;
23266;SDS011;11802;53.160;8.214;2024-03-17T11:07:44;10.80;;;2.43;;
23266;SDS011;11802;53.160;8.214;2024-03-17T11:10:15;6.70;;;1.97;;
23266;SDS011;11802;53.160;8.214;2024-03-17T11:12:47;6.90;;;2.57;;
23266;SDS011;11802;53.160;8.214;2024-03-17T11:17:52;11.13;;;2.37;;
23266;SDS011;11802;53.160;8.214;2024-03-17T11:20:21;11.03;;;2.40;;
23266;SDS011;11802;53.160;8.214;2024-03-17T11:22:51;9.47;;;2.27;;
23266;SDS011;11802;53.160;8.214;2024-03-17T11:27:58;9.03;;;2.43;;
23266;SDS011;11802;53.160;8.214;2024-03-17T11:39:00;9.60;;;2.83;;
23266;SDS011;11802;53.160;8.214;2024-03-17T11:47:02;5.90;;;2.50;;
23266;SDS011;11802;53.160;8.214;2024-03-17T11:49:30;6.37;;;2.60;;
23266;SDS011;11802;53.160;8.214;2024-03-17T11:52:13;8.40;;;2.57;;
23266;SDS011;11802;53.160;8.214;2024-03-17T11:54:41;13.23;;;2.80;;
23266;SDS011;11802;53.160;8.214;2024-03-17T11:57:12;8.97;;;2.70;;
23266;SDS011;11802;53.160;8.214;2024-03-17T11:59:39;8.73;;;3.00;;
23266;SDS011;11802;53.160;8.214;2024-03-17T12:04:58;9.33;;;2.67;;
23266;SDS011;11802;53.160;8.214;2024-03-17T12:07:26;6.43;;;2.20;;
23266;SDS011;11802;53.160;8.214;2024-03-17T12:09:53;8.90;;;2.50;;
23266;SDS011;11802;53.160;8.214;2024-03-17T12:12:24;5.93;;;2.33;;
23266;SDS011;11802;53.160;8.214;2024-03-17T12:14:59;9.17;;;2.93;;
23266;SDS011;11802;53.160;8.214;2024-03-17T12:17:25;10.17;;;2.77;;
23266;SDS011;11802;53.160;8.214;2024-03-17T12:19:51;7.37;;;2.80;;
23266;SDS011;11802;53.160;8.214;2024-03-17T12:24:50;10.30;;;2.80;;
23266;SDS011;11802;53.160;8.214;2024-03-17T12:27:20;8.03;;;2.87;;
23266;SDS011;11802;53.160;8.214;2024-03-17T12:29:52;9.03;;;2.40;;
23266;SDS011;11802;53.160;8.214;2024-03-17T12:32:22;8.57;;;3.10;;
23266;SDS011;11802;53.160;8.214;2024-03-17T12:34:50;10.43;;;3.40;;
23266;SDS011;11802;53.160;8.214;2024-03-17T12:37:17;9.10;;;2.70;;
23266;SDS011;11802;53.160;8.214;2024-03-17T12:39:44;7.80;;;2.80;;
23266;SDS011;11802;53.160;8.214;2024-03-17T12:42:11;9.70;;;2.93;;
23266;SDS011;11802;53.160;8.214;2024-03-17T12:44:48;9.67;;;3.20;;
23266;SDS011;11802;53.160;8.214;2024-03-17T12:47:15;10.97;;;3.63;;
23266;SDS011;11802;53.160;8.214;2024-03-17T12:49:47;8.20;;;2.77;;
23266;SDS011;11802;53.160;8.214;2024-03-17T12:52:21;7.73;;;2.80;;
23266;SDS011;11802;53.160;8.214;2024-03-17T12:55:06;8.77;;;3.20;;
23266;SDS011;11802;53.160;8.214;2024-03-17T12:57:52;8.23;;;2.90;;
23266;SDS011;11802;53.160;8.214;2024-03-17T13:00:46;11.53;;;3.60;;
23266;SDS011;11802;53.160;8.214;2024-03-17T13:03:23;7.37;;;2.50;;
23266;SDS011;11802;53.160;8.214;2024-03-17T13:05:50;8.27;;;2.67;;
23266;SDS011;11802;53.160;8.214;2024-03-17T13:08:16;9.77;;;2.83;;
23266;SDS011;11802;53.160;8.214;2024-03-17T13:10:42;7.93;;;2.50;;
23266;SDS011;11802;53.160;8.214;2024-03-17T13:13:09;8.20;;;2.87;;
23266;SDS011;11802;53.160;8.214;2024-03-17T13:15:36;8.23;;;3.03;;
23266;SDS011;11802;53.160;8.214;2024-03-17T13:18:02;7.07;;;2.70;;
23266;SDS011;11802;53.160;8.214;2024-03-17T13:20:31;8.37;;;2.73;;
23266;SDS011;11802;53.160;8.214;2024-03-17T13:22:57;8.50;;;2.97;;
23266;SDS011;11802;53.160;8.214;2024-03-17T13:25:25;9.53;;;3.53;;
23266;SDS011;11802;53.160;8.214;2024-03-17T13:27:54;10.40;;;3.47;;
23266;SDS011;11802;53.160;8.214;2024-03-17T13:30:21;8.57;;;2.63;;
23266;SDS011;11802;53.160;8.214;2024-03-17T13:32:48;8.60;;;2.70;;
23266;SDS011;11802;53.160;8.214;2024-03-17T13:35:21;11.03;;;2.80;;
23266;SDS011;11802;53.160;8.214;2024-03-17T13:37:50;6.90;;;2.83;;
23266;SDS011;11802;53.160;8.214;2024-03-17T13:40:17;10.20;;;2.97;;
23266;SDS011;11802;53.160;8.214;2024-03-17T13:42:44;8.07;;;2.93;;
23266;SDS011;11802;53.160;8.214;2024-03-17T13:45:14;9.10;;;3.07;;
23266;SDS011;11802;53.160;8.214;2024-03-17T13:47:40;8.50;;;3.13;;
23266;SDS011;11802;53.160;8.214;2024-03-17T13:50:08;7.20;;;2.90;;
23266;SDS011;11802;53.160;8.214;2024-03-17T13:52:40;16.10;;;3.20;;
23266;SDS011;11802;53.160;8.214;2024-03-17T13:55:13;8.97;;;3.33;;
23266;SDS011;11802;53.160;8.214;2024-03-17T13:57:44;8.27;;;3.20;;
23266;SDS011;11802;53.160;8.214;2024-03-17T14:00:10;11.43;;;4.17;;
23266;SDS011;11802;53.160;8.214;2024-03-17T14:02:41;6.27;;;3.17;;
23266;SDS011;11802;53.160;8.214;2024-03-17T14:05:08;9.27;;;3.30;;
23266;SDS011;11802;53.160;8.214;2024-03-17T14:07:37;8.73;;;2.93;;
23266;SDS011;11802;53.160;8.214;2024-03-17T14:10:04;8.00;;;3.03;;
23266;SDS011;11802;53.160;8.214;2024-03-17T14:12:30;9.37;;;3.63;;
23266;SDS011;11802;53.160;8.214;2024-03-17T14:14:56;10.83;;;3.30;;
23266;SDS011;11802;53.160;8.214;2024-03-17T14:17:23;9.87;;;3.27;;
23266;SDS011;11802;53.160;8.214;2024-03-17T14:19:48;11.13;;;3.63;;
23266;SDS011;11802;53.160;8.214;2024-03-17T14:22:14;11.07;;;3.43;;
23266;SDS011;11802;53.160;8.214;2024-03-17T14:24:40;8.23;;;3.23;;
23266;SDS011;11802;53.160;8.214;2024-03-17T14:27:05;9.00;;;3.50;;
23266;SDS011;11802;53.160;8.214;2024-03-17T14:29:32;7.17;;;3.33;;
23266;SDS011;11802;53.160;8.214;2024-03-17T14:31:57;10.37;;;3.33;;
23266;SDS011;11802;53.160;8.214;2024-03-17T14:34:23;11.50;;;3.33;;
23266;SDS011;11802;53.160;8.214;2024-03-17T14:36:49;12.13;;;3.43;;
23266;SDS011;11802;53.160;8.214;2024-03-17T14:39:14;8.23;;;3.53;;
23266;SDS011;11802;53.160;8.214;2024-03-17T14:41:40;8.50;;;3.27;;
23266;SDS011;11802;53.160;8.214;2024-03-17T14:44:05;9.13;;;3.40;;
23266;SDS011;11802;53.160;8.214;2024-03-17T14:46:31;10.30;;;3.90;;
23266;SDS011;11802;53.160;8.214;2024-03-17T14:48:57;10.37;;;3.70;;
23266;SDS011;11802;53.160;8.214;2024-03-17T14:51:22;10.63;;;3.20;;
23266;SDS011;11802;53.160;8.214;2024-03-17T14:53:48;10.43;;;3.57;;
23266;SDS011;11802;53.160;8.214;2024-03-17T14:56:16;10.23;;;2.90;;
23266;SDS011;11802;53.160;8.214;2024-03-17T14:58:45;10.03;;;3.20;;
23266;SDS011;11802;53.160;8.214;2024-03-17T15:01:12;8.17;;;3.13;;
23266;SDS011;11802;53.160;8.214;2024-03-17T15:03:38;12.00;;;3.17;;
23266;SDS011;11802;53.160;8.214;2024-03-17T15:06:13;7.80;;;3.13;;
23266;SDS011;11802;53.160;8.214;2024-03-17T15:08:40;11.03;;;3.37;;